sensor_id;sensor_type;location;lat;lon;timestamp;temperature;humidity
5775;DHT22;2913;51.120;6.772;2023-06-24T00:01:30;19.90;99.90
5775;DHT22;2913;51.120;6.772;2023-06-24T00:03:57;19.90;99.90
5775;DHT22;2913;51.120;6.772;2023-06-24T00:06:25;19.90;99.90
5775;DHT22;2913;51.120;6.772;2023-06-24T00:08:51;19.90;99.90
5775;DHT22;2913;51.120;6.772;2023-06-24T00:11:20;19.90;99.90
5775;DHT22;2913;51.120;6.772;2023-06-24T00:13:48;19.80;99.90
5775;DHT22;2913;51.120;6.772;2023-06-24T00:16:13;19.80;99.90
5775;DHT22;2913;51.120;6.772;2023-06-24T00:18:41;19.80;99.90
5775;DHT22;2913;51.120;6.772;2023-06-24T00:21:07;19.80;99.90
5775;DHT22;2913;51.120;6.772;2023-06-24T00:23:33;19.70;99.90
5775;DHT22;2913;51.120;6.772;2023-06-24T00:26:01;19.70;99.90
5775;DHT22;2913;51.120;6.772;2023-06-24T00:28:27;19.70;99.90
5775;DHT22;2913;51.120;6.772;2023-06-24T00:30:53;19.70;99.90
5775;DHT22;2913;51.120;6.772;2023-06-24T00:33:21;19.70;99.90
5775;DHT22;2913;51.120;6.772;2023-06-24T00:35:47;19.70;99.90
5775;DHT22;2913;51.120;6.772;2023-06-24T00:38:13;19.60;99.90
5775;DHT22;2913;51.120;6.772;2023-06-24T00:40:39;19.60;99.90
5775;DHT22;2913;51.120;6.772;2023-06-24T00:43:08;19.60;99.90
5775;DHT22;2913;51.120;6.772;2023-06-24T00:45:34;19.60;99.90
5775;DHT22;2913;51.120;6.772;2023-06-24T00:47:59;19.60;99.90
5775;DHT22;2913;51.120;6.772;2023-06-24T00:50:28;19.50;99.90
5775;DHT22;2913;51.120;6.772;2023-06-24T00:52:54;19.50;99.90
5775;DHT22;2913;51.120;6.772;2023-06-24T00:55:19;19.50;99.90
5775;DHT22;2913;51.120;6.772;2023-06-24T00:57:49;19.50;99.90
5775;DHT22;2913;51.120;6.772;2023-06-24T01:00:21;19.50;99.90
5775;DHT22;2913;51.120;6.772;2023-06-24T01:02:51;19.40;99.90
5775;DHT22;2913;51.120;6.772;2023-06-24T01:05:17;19.40;99.90
5775;DHT22;2913;51.120;6.772;2023-06-24T01:07:46;19.40;99.90
5775;DHT22;2913;51.120;6.772;2023-06-24T01:10:20;19.40;99.90
5775;DHT22;2913;51.120;6.772;2023-06-24T01:12:49;19.30;99.90
5775;DHT22;2913;51.120;6.772;2023-06-24T01:15:17;19.30;99.90
5775;DHT22;2913;51.120;6.772;2023-06-24T01:17:58;19.30;99.90
5775;DHT22;2913;51.120;6.772;2023-06-24T01:20:55;19.40;99.90
5775;DHT22;2913;51.120;6.772;2023-06-24T01:29:31;19.30;99.90
5775;DHT22;2913;51.120;6.772;2023-06-24T01:32:13;19.30;99.90
5775;DHT22;2913;51.120;6.772;2023-06-24T01:34:52;19.30;99.90
5775;DHT22;2913;51.120;6.772;2023-06-24T01:40:11;19.20;99.90
5775;DHT22;2913;51.120;6.772;2023-06-24T01:42:42;19.10;99.90
5775;DHT22;2913;51.120;6.772;2023-06-24T01:45:12;19.10;99.90
5775;DHT22;2913;51.120;6.772;2023-06-24T01:47:42;19.10;99.90
5775;DHT22;2913;51.120;6.772;2023-06-24T01:50:10;19.10;99.90
5775;DHT22;2913;51.120;6.772;2023-06-24T01:52:38;19.10;99.90
5775;DHT22;2913;51.120;6.772;2023-06-24T01:55:08;19.10;99.90
5775;DHT22;2913;51.120;6.772;2023-06-24T01:57:40;19.10;99.90
5775;DHT22;2913;51.120;6.772;2023-06-24T02:00:07;19.10;99.90
5775;DHT22;2913;51.120;6.772;2023-06-24T02:02:35;19.00;99.90
5775;DHT22;2913;51.120;6.772;2023-06-24T02:05:02;19.00;99.90
5775;DHT22;2913;51.120;6.772;2023-06-24T02:07:29;19.00;99.90
5775;DHT22;2913;51.120;6.772;2023-06-24T02:09:56;19.00;99.90
5775;DHT22;2913;51.120;6.772;2023-06-24T02:12:24;18.90;99.90
5775;DHT22;2913;51.120;6.772;2023-06-24T02:14:55;18.90;99.90
5775;DHT22;2913;51.120;6.772;2023-06-24T02:17:23;18.90;99.90
5775;DHT22;2913;51.120;6.772;2023-06-24T02:19:50;18.80;99.90
5775;DHT22;2913;51.120;6.772;2023-06-24T02:22:17;18.80;99.90
5775;DHT22;2913;51.120;6.772;2023-06-24T02:24:43;18.90;99.90
5775;DHT22;2913;51.120;6.772;2023-06-24T02:27:14;18.80;99.90
5775;DHT22;2913;51.120;6.772;2023-06-24T02:29:43;18.80;99.90
5775;DHT22;2913;51.120;6.772;2023-06-24T02:32:09;18.80;99.90
5775;DHT22;2913;51.120;6.772;2023-06-24T02:34:35;18.80;99.90
5775;DHT22;2913;51.120;6.772;2023-06-24T02:37:01;18.80;99.90
5775;DHT22;2913;51.120;6.772;2023-06-24T02:39:29;18.80;99.90
5775;DHT22;2913;51.120;6.772;2023-06-24T02:41:55;18.80;99.90
5775;DHT22;2913;51.120;6.772;2023-06-24T02:44:23;18.80;99.90
5775;DHT22;2913;51.120;6.772;2023-06-24T02:46:51;18.80;99.90
5775;DHT22;2913;51.120;6.772;2023-06-24T02:49:21;18.80;99.90
5775;DHT22;2913;51.120;6.772;2023-06-24T02:51:48;18.80;99.90
5775;DHT22;2913;51.120;6.772;2023-06-24T02:54:14;18.80;99.90
5775;DHT22;2913;51.120;6.772;2023-06-24T02:56:41;18.70;99.90
5775;DHT22;2913;51.120;6.772;2023-06-24T02:59:09;18.70;99.90
5775;DHT22;2913;51.120;6.772;2023-06-24T03:01:36;18.70;99.90
5775;DHT22;2913;51.120;6.772;2023-06-24T03:04:04;18.70;99.90
5775;DHT22;2913;51.120;6.772;2023-06-24T03:06:30;18.70;99.90
5775;DHT22;2913;51.120;6.772;2023-06-24T03:08:57;18.60;99.90
5775;DHT22;2913;51.120;6.772;2023-06-24T03:11:27;18.60;99.90
5775;DHT22;2913;51.120;6.772;2023-06-24T03:13:56;18.70;99.90
5775;DHT22;2913;51.120;6.772;2023-06-24T03:16:22;18.70;99.90
5775;DHT22;2913;51.120;6.772;2023-06-24T03:18:48;18.70;99.90
5775;DHT22;2913;51.120;6.772;2023-06-24T03:21:13;18.70;99.90
5775;DHT22;2913;51.120;6.772;2023-06-24T03:23:39;18.70;99.90
5775;DHT22;2913;51.120;6.772;2023-06-24T03:26:05;18.80;99.90
5775;DHT22;2913;51.120;6.772;2023-06-24T03:28:33;18.80;99.90
5775;DHT22;2913;51.120;6.772;2023-06-24T03:31:01;18.70;99.90
5775;DHT22;2913;51.120;6.772;2023-06-24T03:33:26;18.70;99.90
5775;DHT22;2913;51.120;6.772;2023-06-24T03:35:53;18.70;99.90
5775;DHT22;2913;51.120;6.772;2023-06-24T03:38:19;18.60;99.90
5775;DHT22;2913;51.120;6.772;2023-06-24T03:40:48;18.70;99.90
5775;DHT22;2913;51.120;6.772;2023-06-24T03:43:14;18.70;99.90
5775;DHT22;2913;51.120;6.772;2023-06-24T03:45:42;18.70;99.90
5775;DHT22;2913;51.120;6.772;2023-06-24T03:48:07;18.60;99.90
5775;DHT22;2913;51.120;6.772;2023-06-24T03:50:33;18.60;99.90
5775;DHT22;2913;51.120;6.772;2023-06-24T03:53:02;18.60;99.90
5775;DHT22;2913;51.120;6.772;2023-06-24T03:55:28;18.50;99.90
5775;DHT22;2913;51.120;6.772;2023-06-24T03:57:55;18.50;99.90
5775;DHT22;2913;51.120;6.772;2023-06-24T04:00:21;18.60;99.90
5775;DHT22;2913;51.120;6.772;2023-06-24T04:02:47;18.70;99.90
5775;DHT22;2913;51.120;6.772;2023-06-24T04:05:13;18.70;99.90
5775;DHT22;2913;51.120;6.772;2023-06-24T04:07:38;18.70;99.90
5775;DHT22;2913;51.120;6.772;2023-06-24T04:10:08;18.70;99.90
5775;DHT22;2913;51.120;6.772;2023-06-24T04:12:38;18.70;99.90
5775;DHT22;2913;51.120;6.772;2023-06-24T04:15:04;19.00;99.90
5775;DHT22;2913;51.120;6.772;2023-06-24T04:17:31;19.30;99.90
5775;DHT22;2913;51.120;6.772;2023-06-24T04:19:57;19.60;99.90
5775;DHT22;2913;51.120;6.772;2023-06-24T04:22:26;19.80;99.90
5775;DHT22;2913;51.120;6.772;2023-06-24T04:24:52;20.10;99.90
5775;DHT22;2913;51.120;6.772;2023-06-24T04:27:17;20.40;99.90
5775;DHT22;2913;51.120;6.772;2023-06-24T04:29:43;20.70;99.90
5775;DHT22;2913;51.120;6.772;2023-06-24T04:32:08;21.00;99.90
5775;DHT22;2913;51.120;6.772;2023-06-24T04:34:34;21.20;99.90
5775;DHT22;2913;51.120;6.772;2023-06-24T04:37:00;21.50;99.90
5775;DHT22;2913;51.120;6.772;2023-06-24T04:39:28;21.70;99.90
5775;DHT22;2913;51.120;6.772;2023-06-24T04:41:56;22.00;99.90
5775;DHT22;2913;51.120;6.772;2023-06-24T04:44:24;22.10;99.90
5775;DHT22;2913;51.120;6.772;2023-06-24T04:46:49;22.40;99.90
5775;DHT22;2913;51.120;6.772;2023-06-24T04:49:18;22.80;99.90
5775;DHT22;2913;51.120;6.772;2023-06-24T04:51:46;23.00;99.90
5775;DHT22;2913;51.120;6.772;2023-06-24T04:54:11;23.10;99.90
5775;DHT22;2913;51.120;6.772;2023-06-24T04:56:40;23.20;99.90
5775;DHT22;2913;51.120;6.772;2023-06-24T04:59:11;23.40;99.90
5775;DHT22;2913;51.120;6.772;2023-06-24T05:01:39;23.70;99.90
5775;DHT22;2913;51.120;6.772;2023-06-24T05:04:04;24.00;99.90
5775;DHT22;2913;51.120;6.772;2023-06-24T05:06:30;24.30;99.90
5775;DHT22;2913;51.120;6.772;2023-06-24T05:09:00;24.70;99.90
5775;DHT22;2913;51.120;6.772;2023-06-24T05:11:26;24.90;99.90
5775;DHT22;2913;51.120;6.772;2023-06-24T05:13:51;25.30;99.90
5775;DHT22;2913;51.120;6.772;2023-06-24T05:16:18;25.40;99.90
5775;DHT22;2913;51.120;6.772;2023-06-24T05:18:46;25.60;99.90
5775;DHT22;2913;51.120;6.772;2023-06-24T05:21:14;25.90;99.90
5775;DHT22;2913;51.120;6.772;2023-06-24T05:23:41;26.20;99.90
5775;DHT22;2913;51.120;6.772;2023-06-24T05:26:07;26.40;99.90
5775;DHT22;2913;51.120;6.772;2023-06-24T05:28:39;26.90;99.90
5775;DHT22;2913;51.120;6.772;2023-06-24T05:31:04;26.90;99.90
5775;DHT22;2913;51.120;6.772;2023-06-24T05:33:30;27.00;99.90
5775;DHT22;2913;51.120;6.772;2023-06-24T05:35:58;26.80;99.90
5775;DHT22;2913;51.120;6.772;2023-06-24T05:38:23;27.00;99.90
5775;DHT22;2913;51.120;6.772;2023-06-24T05:40:51;26.90;99.90
5775;DHT22;2913;51.120;6.772;2023-06-24T05:43:17;26.70;99.90
5775;DHT22;2913;51.120;6.772;2023-06-24T05:45:42;26.80;99.90
5775;DHT22;2913;51.120;6.772;2023-06-24T05:48:08;26.70;99.90
5775;DHT22;2913;51.120;6.772;2023-06-24T05:50:34;26.90;99.90
5775;DHT22;2913;51.120;6.772;2023-06-24T05:53:04;26.90;99.90
5775;DHT22;2913;51.120;6.772;2023-06-24T05:55:30;27.00;99.90
5775;DHT22;2913;51.120;6.772;2023-06-24T05:57:55;26.80;99.90
5775;DHT22;2913;51.120;6.772;2023-06-24T06:00:21;26.90;99.90
5775;DHT22;2913;51.120;6.772;2023-06-24T06:02:49;26.80;99.90
5775;DHT22;2913;51.120;6.772;2023-06-24T06:05:15;26.90;99.90
5775;DHT22;2913;51.120;6.772;2023-06-24T06:07:41;27.10;99.90
5775;DHT22;2913;51.120;6.772;2023-06-24T06:10:09;27.10;99.90
5775;DHT22;2913;51.120;6.772;2023-06-24T06:12:34;26.90;99.90
5775;DHT22;2913;51.120;6.772;2023-06-24T06:15:15;26.90;99.90
5775;DHT22;2913;51.120;6.772;2023-06-24T06:17:45;27.00;99.90
5775;DHT22;2913;51.120;6.772;2023-06-24T06:20:14;27.00;99.90
5775;DHT22;2913;51.120;6.772;2023-06-24T06:22:39;27.20;99.90
5775;DHT22;2913;51.120;6.772;2023-06-24T06:25:06;27.10;99.90
5775;DHT22;2913;51.120;6.772;2023-06-24T06:27:31;26.70;99.90
5775;DHT22;2913;51.120;6.772;2023-06-24T06:29:59;26.30;99.90
5775;DHT22;2913;51.120;6.772;2023-06-24T06:32:25;26.10;99.90
5775;DHT22;2913;51.120;6.772;2023-06-24T06:34:53;26.00;99.90
5775;DHT22;2913;51.120;6.772;2023-06-24T06:37:19;26.00;99.90
5775;DHT22;2913;51.120;6.772;2023-06-24T06:39:47;25.90;99.90
5775;DHT22;2913;51.120;6.772;2023-06-24T06:42:12;25.80;99.90
5775;DHT22;2913;51.120;6.772;2023-06-24T06:44:42;25.80;99.90
5775;DHT22;2913;51.120;6.772;2023-06-24T06:47:10;25.80;99.90
5775;DHT22;2913;51.120;6.772;2023-06-24T06:49:36;25.80;99.90
5775;DHT22;2913;51.120;6.772;2023-06-24T06:52:04;25.80;99.90
5775;DHT22;2913;51.120;6.772;2023-06-24T06:54:30;25.80;99.90
5775;DHT22;2913;51.120;6.772;2023-06-24T06:57:00;26.00;99.90
5775;DHT22;2913;51.120;6.772;2023-06-24T06:59:26;25.90;99.90
5775;DHT22;2913;51.120;6.772;2023-06-24T07:01:52;26.20;99.90
5775;DHT22;2913;51.120;6.772;2023-06-24T07:04:17;26.50;99.90
5775;DHT22;2913;51.120;6.772;2023-06-24T07:06:43;26.80;99.90
5775;DHT22;2913;51.120;6.772;2023-06-24T07:09:09;27.00;98.80
5775;DHT22;2913;51.120;6.772;2023-06-24T07:11:34;27.10;97.70
5775;DHT22;2913;51.120;6.772;2023-06-24T07:14:00;27.20;95.40
5775;DHT22;2913;51.120;6.772;2023-06-24T07:16:25;27.20;94.50
5775;DHT22;2913;51.120;6.772;2023-06-24T07:18:51;27.10;94.50
5775;DHT22;2913;51.120;6.772;2023-06-24T07:21:19;27.30;94.80
5775;DHT22;2913;51.120;6.772;2023-06-24T07:23:49;27.50;95.20
5775;DHT22;2913;51.120;6.772;2023-06-24T07:26:17;27.30;93.30
5775;DHT22;2913;51.120;6.772;2023-06-24T07:28:46;27.20;94.30
5775;DHT22;2913;51.120;6.772;2023-06-24T07:31:11;27.10;93.20
5775;DHT22;2913;51.120;6.772;2023-06-24T07:33:37;27.30;93.90
5775;DHT22;2913;51.120;6.772;2023-06-24T07:36:03;27.30;93.80
5775;DHT22;2913;51.120;6.772;2023-06-24T07:38:29;27.50;94.00
5775;DHT22;2913;51.120;6.772;2023-06-24T07:40:57;27.50;93.20
5775;DHT22;2913;51.120;6.772;2023-06-24T07:43:23;27.50;91.80
5775;DHT22;2913;51.120;6.772;2023-06-24T07:45:49;27.60;91.60
5775;DHT22;2913;51.120;6.772;2023-06-24T07:48:17;27.80;91.40
5775;DHT22;2913;51.120;6.772;2023-06-24T07:50:42;27.80;91.90
5775;DHT22;2913;51.120;6.772;2023-06-24T07:53:10;27.90;91.80
5775;DHT22;2913;51.120;6.772;2023-06-24T07:55:36;27.70;90.70
5775;DHT22;2913;51.120;6.772;2023-06-24T07:58:04;27.60;90.40
5775;DHT22;2913;51.120;6.772;2023-06-24T08:00:30;27.00;89.00
5775;DHT22;2913;51.120;6.772;2023-06-24T08:02:57;27.10;90.20
5775;DHT22;2913;51.120;6.772;2023-06-24T08:05:25;27.20;89.70
5775;DHT22;2913;51.120;6.772;2023-06-24T08:07:54;27.10;89.00
5775;DHT22;2913;51.120;6.772;2023-06-24T08:10:20;27.20;90.00
5775;DHT22;2913;51.120;6.772;2023-06-24T08:12:47;27.50;91.00
5775;DHT22;2913;51.120;6.772;2023-06-24T08:15:13;26.90;88.80
5775;DHT22;2913;51.120;6.772;2023-06-24T08:17:39;27.10;90.00
5775;DHT22;2913;51.120;6.772;2023-06-24T08:20:07;26.80;90.10
5775;DHT22;2913;51.120;6.772;2023-06-24T08:22:35;27.20;91.70
5775;DHT22;2913;51.120;6.772;2023-06-24T08:25:01;27.50;91.60
5775;DHT22;2913;51.120;6.772;2023-06-24T08:27:29;27.80;91.80
5775;DHT22;2913;51.120;6.772;2023-06-24T08:29:54;27.90;91.30
5775;DHT22;2913;51.120;6.772;2023-06-24T08:32:24;28.10;92.00
5775;DHT22;2913;51.120;6.772;2023-06-24T08:34:50;28.30;92.40
5775;DHT22;2913;51.120;6.772;2023-06-24T08:37:16;28.20;91.30
5775;DHT22;2913;51.120;6.772;2023-06-24T08:39:44;28.30;91.60
5775;DHT22;2913;51.120;6.772;2023-06-24T08:42:14;28.30;91.40
5775;DHT22;2913;51.120;6.772;2023-06-24T08:44:39;28.30;91.80
5775;DHT22;2913;51.120;6.772;2023-06-24T08:47:05;28.30;92.00
5775;DHT22;2913;51.120;6.772;2023-06-24T08:49:32;28.40;91.20
5775;DHT22;2913;51.120;6.772;2023-06-24T08:52:04;28.50;92.30
5775;DHT22;2913;51.120;6.772;2023-06-24T08:54:35;28.50;91.20
5775;DHT22;2913;51.120;6.772;2023-06-24T08:57:04;28.00;90.50
5775;DHT22;2913;51.120;6.772;2023-06-24T08:59:33;27.90;91.20
5775;DHT22;2913;51.120;6.772;2023-06-24T09:01:58;28.00;92.20
5775;DHT22;2913;51.120;6.772;2023-06-24T09:04:26;27.50;91.70
5775;DHT22;2913;51.120;6.772;2023-06-24T09:06:54;27.70;92.20
5775;DHT22;2913;51.120;6.772;2023-06-24T09:09:23;27.70;92.40
5775;DHT22;2913;51.120;6.772;2023-06-24T09:11:56;27.80;92.80
5775;DHT22;2913;51.120;6.772;2023-06-24T09:14:23;27.70;92.20
5775;DHT22;2913;51.120;6.772;2023-06-24T09:16:53;27.90;93.00
5775;DHT22;2913;51.120;6.772;2023-06-24T09:19:26;27.90;92.20
5775;DHT22;2913;51.120;6.772;2023-06-24T09:21:55;28.10;92.70
5775;DHT22;2913;51.120;6.772;2023-06-24T09:24:21;28.00;92.10
5775;DHT22;2913;51.120;6.772;2023-06-24T09:26:56;28.10;92.50
5775;DHT22;2913;51.120;6.772;2023-06-24T09:29:35;28.30;92.90
5775;DHT22;2913;51.120;6.772;2023-06-24T09:32:06;28.40;92.10
5775;DHT22;2913;51.120;6.772;2023-06-24T09:34:32;28.20;91.80
5775;DHT22;2913;51.120;6.772;2023-06-24T09:36:59;28.30;91.90
5775;DHT22;2913;51.120;6.772;2023-06-24T09:39:28;28.20;91.20
5775;DHT22;2913;51.120;6.772;2023-06-24T09:42:02;28.20;91.90
5775;DHT22;2913;51.120;6.772;2023-06-24T09:44:31;28.40;91.90
5775;DHT22;2913;51.120;6.772;2023-06-24T09:46:57;28.40;90.90
5775;DHT22;2913;51.120;6.772;2023-06-24T09:49:28;28.60;90.60
5775;DHT22;2913;51.120;6.772;2023-06-24T09:51:58;28.70;90.90
5775;DHT22;2913;51.120;6.772;2023-06-24T09:54:29;28.80;91.50
5775;DHT22;2913;51.120;6.772;2023-06-24T09:57:00;28.80;89.20
5775;DHT22;2913;51.120;6.772;2023-06-24T09:59:27;28.80;90.50
5775;DHT22;2913;51.120;6.772;2023-06-24T10:01:55;28.80;90.20
5775;DHT22;2913;51.120;6.772;2023-06-24T10:04:21;28.70;88.90
5775;DHT22;2913;51.120;6.772;2023-06-24T10:06:50;28.50;88.40
5775;DHT22;2913;51.120;6.772;2023-06-24T10:09:16;28.60;90.70
5775;DHT22;2913;51.120;6.772;2023-06-24T10:11:49;28.30;88.30
5775;DHT22;2913;51.120;6.772;2023-06-24T10:14:17;28.40;89.60
5775;DHT22;2913;51.120;6.772;2023-06-24T10:16:44;28.30;90.00
5775;DHT22;2913;51.120;6.772;2023-06-24T10:19:19;28.40;87.90
5775;DHT22;2913;51.120;6.772;2023-06-24T10:21:50;28.60;88.60
5775;DHT22;2913;51.120;6.772;2023-06-24T10:24:31;28.50;85.90
5775;DHT22;2913;51.120;6.772;2023-06-24T10:27:08;28.70;86.70
5775;DHT22;2913;51.120;6.772;2023-06-24T10:29:37;28.70;85.80
5775;DHT22;2913;51.120;6.772;2023-06-24T10:32:06;28.80;84.60
5775;DHT22;2913;51.120;6.772;2023-06-24T10:34:42;28.80;84.70
5775;DHT22;2913;51.120;6.772;2023-06-24T10:39:54;29.00;81.90
5775;DHT22;2913;51.120;6.772;2023-06-24T10:44:49;29.00;81.50
5775;DHT22;2913;51.120;6.772;2023-06-24T10:47:16;29.10;81.80
5775;DHT22;2913;51.120;6.772;2023-06-24T10:49:45;29.00;83.40
5775;DHT22;2913;51.120;6.772;2023-06-24T10:52:13;29.10;82.80
5775;DHT22;2913;51.120;6.772;2023-06-24T10:54:42;29.10;82.40
5775;DHT22;2913;51.120;6.772;2023-06-24T10:57:11;29.20;82.20
5775;DHT22;2913;51.120;6.772;2023-06-24T10:59:47;29.10;79.10
5775;DHT22;2913;51.120;6.772;2023-06-24T11:02:23;29.10;81.00
5775;DHT22;2913;51.120;6.772;2023-06-24T11:07:17;29.10;80.70
5775;DHT22;2913;51.120;6.772;2023-06-24T11:09:52;29.20;81.30
5775;DHT22;2913;51.120;6.772;2023-06-24T11:12:20;29.10;76.50
5775;DHT22;2913;51.120;6.772;2023-06-24T11:14:48;29.10;78.70
5775;DHT22;2913;51.120;6.772;2023-06-24T11:17:14;29.10;77.60
5775;DHT22;2913;51.120;6.772;2023-06-24T11:19:42;29.10;78.30
5775;DHT22;2913;51.120;6.772;2023-06-24T11:22:09;29.00;77.20
5775;DHT22;2913;51.120;6.772;2023-06-24T11:24:35;29.10;79.80
5775;DHT22;2913;51.120;6.772;2023-06-24T11:27:03;29.10;78.20
5775;DHT22;2913;51.120;6.772;2023-06-24T11:29:32;29.10;78.80
5775;DHT22;2913;51.120;6.772;2023-06-24T11:32:00;29.20;76.70
5775;DHT22;2913;51.120;6.772;2023-06-24T11:34:26;29.30;77.20
5775;DHT22;2913;51.120;6.772;2023-06-24T11:36:54;29.30;78.40
5775;DHT22;2913;51.120;6.772;2023-06-24T11:39:24;29.40;78.70
5775;DHT22;2913;51.120;6.772;2023-06-24T11:41:51;29.50;78.30
5775;DHT22;2913;51.120;6.772;2023-06-24T11:44:35;29.50;78.00
5775;DHT22;2913;51.120;6.772;2023-06-24T11:47:05;29.60;77.60
5775;DHT22;2913;51.120;6.772;2023-06-24T11:49:31;29.60;75.80
5775;DHT22;2913;51.120;6.772;2023-06-24T11:51:59;29.70;76.00
5775;DHT22;2913;51.120;6.772;2023-06-24T11:54:26;29.30;74.90
5775;DHT22;2913;51.120;6.772;2023-06-24T11:56:53;29.50;76.40
5775;DHT22;2913;51.120;6.772;2023-06-24T11:59:19;29.60;72.60
5775;DHT22;2913;51.120;6.772;2023-06-24T12:01:52;29.50;72.90
5775;DHT22;2913;51.120;6.772;2023-06-24T12:04:19;29.50;70.90
5775;DHT22;2913;51.120;6.772;2023-06-24T12:06:45;29.60;71.30
5775;DHT22;2913;51.120;6.772;2023-06-24T12:09:11;29.60;71.00
5775;DHT22;2913;51.120;6.772;2023-06-24T12:11:39;29.70;71.60
5775;DHT22;2913;51.120;6.772;2023-06-24T12:14:06;29.90;71.30
5775;DHT22;2913;51.120;6.772;2023-06-24T12:16:34;30.00;70.50
5775;DHT22;2913;51.120;6.772;2023-06-24T12:19:02;30.00;72.10
5775;DHT22;2913;51.120;6.772;2023-06-24T12:21:30;30.00;70.40
5775;DHT22;2913;51.120;6.772;2023-06-24T12:23:56;30.10;70.50
5775;DHT22;2913;51.120;6.772;2023-06-24T12:26:21;30.10;69.80
5775;DHT22;2913;51.120;6.772;2023-06-24T12:28:49;30.20;69.20
5775;DHT22;2913;51.120;6.772;2023-06-24T12:31:15;30.10;68.80
5775;DHT22;2913;51.120;6.772;2023-06-24T12:33:45;30.10;68.70
5775;DHT22;2913;51.120;6.772;2023-06-24T12:36:10;30.20;68.40
5775;DHT22;2913;51.120;6.772;2023-06-24T12:38:36;30.30;65.00
5775;DHT22;2913;51.120;6.772;2023-06-24T12:41:02;30.30;63.10
5775;DHT22;2913;51.120;6.772;2023-06-24T12:43:27;30.20;64.30
5775;DHT22;2913;51.120;6.772;2023-06-24T12:45:53;30.10;63.40
5775;DHT22;2913;51.120;6.772;2023-06-24T12:48:18;30.00;64.10
5775;DHT22;2913;51.120;6.772;2023-06-24T12:50:46;30.20;62.70
5775;DHT22;2913;51.120;6.772;2023-06-24T12:53:21;30.20;64.00
5775;DHT22;2913;51.120;6.772;2023-06-24T12:55:47;30.30;63.70
5775;DHT22;2913;51.120;6.772;2023-06-24T12:58:22;30.40;62.50
5775;DHT22;2913;51.120;6.772;2023-06-24T13:00:48;30.50;61.60
5775;DHT22;2913;51.120;6.772;2023-06-24T13:03:14;30.20;60.50
5775;DHT22;2913;51.120;6.772;2023-06-24T13:05:42;30.30;60.70
5775;DHT22;2913;51.120;6.772;2023-06-24T13:08:08;30.40;60.00
5775;DHT22;2913;51.120;6.772;2023-06-24T13:10:38;30.50;60.90
5775;DHT22;2913;51.120;6.772;2023-06-24T13:13:06;30.30;62.00
5775;DHT22;2913;51.120;6.772;2023-06-24T13:15:32;30.20;61.60
5775;DHT22;2913;51.120;6.772;2023-06-24T13:18:00;30.30;62.70
5775;DHT22;2913;51.120;6.772;2023-06-24T13:20:27;30.30;61.10
5775;DHT22;2913;51.120;6.772;2023-06-24T13:22:52;30.40;60.60
5775;DHT22;2913;51.120;6.772;2023-06-24T13:25:18;30.60;61.60
5775;DHT22;2913;51.120;6.772;2023-06-24T13:27:46;30.50;62.00
5775;DHT22;2913;51.120;6.772;2023-06-24T13:30:14;30.50;62.00
5775;DHT22;2913;51.120;6.772;2023-06-24T13:32:41;30.50;63.60
5775;DHT22;2913;51.120;6.772;2023-06-24T13:35:07;30.50;63.00
5775;DHT22;2913;51.120;6.772;2023-06-24T13:37:32;30.50;61.00
5775;DHT22;2913;51.120;6.772;2023-06-24T13:39:58;30.50;61.40
5775;DHT22;2913;51.120;6.772;2023-06-24T13:42:24;30.50;63.70
5775;DHT22;2913;51.120;6.772;2023-06-24T13:44:51;30.20;64.70
5775;DHT22;2913;51.120;6.772;2023-06-24T13:47:17;30.10;63.70
5775;DHT22;2913;51.120;6.772;2023-06-24T13:49:42;30.00;63.40
5775;DHT22;2913;51.120;6.772;2023-06-24T13:52:08;30.00;63.60
5775;DHT22;2913;51.120;6.772;2023-06-24T13:54:36;30.10;63.50
5775;DHT22;2913;51.120;6.772;2023-06-24T13:57:01;29.60;61.70
5775;DHT22;2913;51.120;6.772;2023-06-24T13:59:27;29.70;63.00
5775;DHT22;2913;51.120;6.772;2023-06-24T14:01:53;29.80;64.00
5775;DHT22;2913;51.120;6.772;2023-06-24T14:04:20;30.00;64.10
5775;DHT22;2913;51.120;6.772;2023-06-24T14:06:46;30.10;62.90
5775;DHT22;2913;51.120;6.772;2023-06-24T14:09:12;30.10;61.00
5775;DHT22;2913;51.120;6.772;2023-06-24T14:11:37;30.00;60.30
5775;DHT22;2913;51.120;6.772;2023-06-24T14:14:03;30.10;61.30
5775;DHT22;2913;51.120;6.772;2023-06-24T14:16:29;30.30;60.50
5775;DHT22;2913;51.120;6.772;2023-06-24T14:18:57;30.30;59.20
5775;DHT22;2913;51.120;6.772;2023-06-24T14:21:27;30.10;57.90
5775;DHT22;2913;51.120;6.772;2023-06-24T14:23:54;30.10;60.00
5775;DHT22;2913;51.120;6.772;2023-06-24T14:26:20;30.00;59.50
5775;DHT22;2913;51.120;6.772;2023-06-24T14:28:45;30.00;58.20
5775;DHT22;2913;51.120;6.772;2023-06-24T14:31:11;30.10;58.80
5775;DHT22;2913;51.120;6.772;2023-06-24T14:33:36;30.20;57.40
5775;DHT22;2913;51.120;6.772;2023-06-24T14:36:05;30.30;57.30
5775;DHT22;2913;51.120;6.772;2023-06-24T14:38:30;30.40;57.80
5775;DHT22;2913;51.120;6.772;2023-06-24T14:40:56;30.10;56.20
5775;DHT22;2913;51.120;6.772;2023-06-24T14:43:22;30.30;57.00
5775;DHT22;2913;51.120;6.772;2023-06-24T14:45:48;30.50;57.40
5775;DHT22;2913;51.120;6.772;2023-06-24T14:48:13;30.60;56.40
5775;DHT22;2913;51.120;6.772;2023-06-24T14:50:41;30.50;55.70
5775;DHT22;2913;51.120;6.772;2023-06-24T14:53:07;30.50;56.40
5775;DHT22;2913;51.120;6.772;2023-06-24T14:55:32;30.50;54.20
5775;DHT22;2913;51.120;6.772;2023-06-24T14:57:58;30.30;53.60
5775;DHT22;2913;51.120;6.772;2023-06-24T15:00:24;30.20;52.70
5775;DHT22;2913;51.120;6.772;2023-06-24T15:02:49;30.10;51.60
5775;DHT22;2913;51.120;6.772;2023-06-24T15:05:17;30.10;53.40
5775;DHT22;2913;51.120;6.772;2023-06-24T15:07:43;30.20;54.30
5775;DHT22;2913;51.120;6.772;2023-06-24T15:10:11;30.40;53.20
5775;DHT22;2913;51.120;6.772;2023-06-24T15:12:36;30.40;52.20
5775;DHT22;2913;51.120;6.772;2023-06-24T15:15:04;30.50;54.20
5775;DHT22;2913;51.120;6.772;2023-06-24T15:17:30;30.60;53.10
5775;DHT22;2913;51.120;6.772;2023-06-24T15:19:58;30.50;50.20
5775;DHT22;2913;51.120;6.772;2023-06-24T15:22:23;30.40;50.00
5775;DHT22;2913;51.120;6.772;2023-06-24T15:24:52;30.20;48.90
5775;DHT22;2913;51.120;6.772;2023-06-24T15:27:20;30.20;50.50
5775;DHT22;2913;51.120;6.772;2023-06-24T15:29:45;30.30;53.30
5775;DHT22;2913;51.120;6.772;2023-06-24T15:32:13;30.40;53.70
5775;DHT22;2913;51.120;6.772;2023-06-24T15:34:38;30.50;51.20
5775;DHT22;2913;51.120;6.772;2023-06-24T15:37:04;30.50;50.10
5775;DHT22;2913;51.120;6.772;2023-06-24T15:39:30;30.50;50.90
5775;DHT22;2913;51.120;6.772;2023-06-24T15:41:55;30.60;51.90
5775;DHT22;2913;51.120;6.772;2023-06-24T15:44:21;30.70;52.90
5775;DHT22;2913;51.120;6.772;2023-06-24T15:46:49;30.70;53.50
5775;DHT22;2913;51.120;6.772;2023-06-24T15:49:15;30.80;51.30
5775;DHT22;2913;51.120;6.772;2023-06-24T15:51:43;30.80;52.40
5775;DHT22;2913;51.120;6.772;2023-06-24T15:54:11;30.80;51.90
5775;DHT22;2913;51.120;6.772;2023-06-24T15:56:39;30.80;52.80
5775;DHT22;2913;51.120;6.772;2023-06-24T15:59:07;30.80;51.70
5775;DHT22;2913;51.120;6.772;2023-06-24T16:01:33;30.80;52.10
5775;DHT22;2913;51.120;6.772;2023-06-24T16:04:01;30.80;54.00
5775;DHT22;2913;51.120;6.772;2023-06-24T16:06:28;30.80;52.30
5775;DHT22;2913;51.120;6.772;2023-06-24T16:08:54;30.80;52.30
5775;DHT22;2913;51.120;6.772;2023-06-24T16:11:20;30.70;51.50
5775;DHT22;2913;51.120;6.772;2023-06-24T16:13:45;30.80;52.80
5775;DHT22;2913;51.120;6.772;2023-06-24T16:16:11;30.80;54.20
5775;DHT22;2913;51.120;6.772;2023-06-24T16:18:36;30.70;54.20
5775;DHT22;2913;51.120;6.772;2023-06-24T16:21:02;30.70;54.80